createdAt,value
2022-09-16T00:03:59.500Z,1.50
2022-09-16T00:09:02.094Z,1.50
2022-09-16T00:14:04.383Z,1.55
2022-09-16T00:19:06.969Z,1.23
2022-09-16T00:24:13.888Z,1.38
2022-09-16T00:29:15.974Z,1.45
2022-09-16T00:34:18.156Z,1.83
2022-09-16T00:39:20.173Z,1.40
2022-09-16T00:45:05.105Z,1.33
2022-09-16T00:50:14.748Z,1.30
2022-09-16T00:55:21.402Z,1.50
2022-09-16T01:00:23.364Z,1.83
2022-09-16T01:05:26.636Z,1.65
2022-09-16T01:10:28.741Z,1.85
2022-09-16T01:15:55.444Z,1.70
2022-09-16T01:21:11.233Z,1.20
2022-09-16T01:26:49.464Z,1.67
2022-09-16T01:31:51.476Z,1.60
2022-09-16T01:37:03.779Z,1.02
2022-09-16T01:42:15.925Z,1.20
2022-09-16T01:47:44.806Z,1.10
2022-09-16T01:53:16.482Z,0.75
2022-09-16T01:58:26.339Z,1.20
2022-09-16T02:03:32.177Z,1.13
2022-09-16T02:08:56.741Z,0.95
2022-09-16T02:14:24.073Z,0.70
2022-09-16T02:19:31.693Z,0.80
2022-09-16T02:24:35.985Z,1.30
2022-09-16T02:29:43.900Z,1.20
2022-09-16T02:34:49.031Z,1.08
2022-09-16T02:39:55.691Z,1.05
2022-09-16T02:44:58.970Z,1.10
2022-09-16T02:50:10.654Z,0.95
2022-09-16T02:55:37.544Z,0.93
2022-09-16T03:00:46.511Z,0.80
2022-09-16T03:06:13.588Z,1.45
2022-09-16T03:11:30.401Z,0.77
2022-09-16T03:17:00.541Z,0.77
2022-09-16T03:22:09.677Z,0.70
2022-09-16T03:27:16.687Z,0.70
2022-09-16T03:32:30.259Z,0.70
2022-09-16T03:37:35.412Z,0.50
2022-09-16T03:42:42.797Z,0.30
2022-09-16T03:47:46.432Z,0.60
2022-09-16T03:52:48.462Z,0.50
2022-09-16T03:57:52.440Z,0.70
2022-09-16T04:02:54.605Z,0.52
2022-09-16T04:07:57.352Z,0.70
2022-09-16T04:12:59.311Z,0.40
2022-09-16T04:18:01.393Z,0.50
2022-09-16T04:23:03.397Z,0.60
2022-09-16T04:28:05.361Z,0.30
2022-09-16T04:33:07.346Z,0.50
2022-09-16T04:38:09.345Z,0.60
2022-09-16T04:43:11.654Z,0.82
2022-09-16T04:48:13.605Z,0.77
2022-09-16T04:53:15.564Z,0.65
2022-09-16T04:58:17.564Z,0.93
2022-09-16T05:03:19.564Z,0.93
2022-09-16T05:08:21.576Z,0.90
2022-09-16T05:13:23.558Z,0.80
2022-09-16T05:18:25.612Z,0.60
2022-09-16T05:23:27.829Z,0.70
2022-09-16T05:28:30.033Z,0.82
2022-09-16T05:33:32.125Z,0.63
2022-09-16T05:38:34.533Z,0.50
2022-09-16T05:43:37.301Z,0.98
2022-09-16T05:48:39.294Z,0.60
2022-09-16T05:53:41.352Z,1.00
2022-09-16T05:58:43.938Z,0.82
2022-09-16T06:03:47.706Z,0.90
2022-09-16T06:08:50.826Z,0.70
2022-09-16T06:13:55.671Z,0.90
2022-09-16T06:18:57.780Z,0.70
2022-09-16T06:23:59.787Z,0.90
2022-09-16T06:29:01.882Z,0.80
2022-09-16T06:34:05.432Z,0.80
2022-09-16T06:39:07.487Z,0.90
2022-09-16T06:44:09.909Z,0.90
2022-09-16T06:49:12.924Z,0.88
2022-09-16T06:54:14.907Z,0.70
2022-09-16T06:59:16.937Z,0.88
2022-09-16T07:04:18.937Z,0.70
2022-09-16T07:09:20.938Z,0.85
2022-09-16T07:14:23.153Z,1.20
2022-09-16T07:19:26.257Z,0.80
2022-09-16T07:24:28.240Z,1.38
2022-09-16T07:29:30.417Z,1.08
2022-09-16T07:34:32.464Z,1.00
2022-09-16T07:39:34.521Z,0.82
2022-09-16T07:44:36.512Z,0.85
2022-09-16T07:49:38.529Z,0.73
2022-09-16T07:54:40.514Z,0.70
2022-09-16T07:59:42.548Z,0.60
2022-09-16T08:04:50.647Z,0.88
2022-09-16T08:09:53.121Z,0.60
2022-09-16T08:14:56.020Z,0.65
2022-09-16T08:19:58.023Z,0.95
2022-09-16T08:24:59.973Z,0.55
2022-09-16T08:30:04.189Z,0.90
2022-09-16T08:35:07.720Z,0.82
2022-09-16T08:40:16.039Z,0.50
2022-09-16T08:45:24.551Z,0.70
2022-09-16T08:50:34.060Z,0.40
2022-09-16T08:55:41.343Z,0.32
2022-09-16T09:00:47.227Z,0.60
2022-09-16T09:05:55.134Z,0.40
2022-09-16T09:11:13.163Z,0.60
2022-09-16T09:16:56.464Z,0.70
2022-09-16T09:22:13.838Z,0.60
2022-09-16T09:27:21.605Z,0.73
2022-09-16T09:32:26.287Z,0.40
2022-09-16T09:38:09.282Z,0.60
2022-09-16T09:43:25.795Z,0.70
2022-09-16T09:48:38.051Z,0.30
2022-09-16T09:53:46.970Z,0.45
2022-09-16T09:58:53.584Z,0.40
2022-09-16T10:03:58.786Z,0.30
2022-09-16T10:09:01.183Z,0.35
2022-09-16T10:14:05.635Z,0.50
2022-09-16T10:19:19.492Z,0.43
2022-09-16T10:24:34.619Z,0.70
2022-09-16T10:29:36.725Z,0.77
2022-09-16T10:40:25.193Z,0.50
2022-09-16T10:46:01.583Z,0.47
2022-09-16T10:51:56.769Z,0.40
2022-09-16T10:57:33.057Z,0.60
2022-09-16T11:03:24.029Z,0.70
2022-09-16T11:09:11.748Z,0.32
2022-09-16T11:14:52.602Z,0.35
2022-09-16T11:20:00.259Z,0.60
2022-09-16T11:25:38.765Z,0.22
2022-09-16T11:30:51.623Z,0.40
2022-09-16T11:36:03.808Z,0.32
2022-09-16T11:41:30.092Z,0.40
2022-09-16T11:46:48.902Z,0.20
2022-09-16T11:52:04.831Z,0.28
2022-09-16T11:57:24.603Z,0.60
2022-09-16T12:02:37.319Z,0.30
2022-09-16T12:07:54.962Z,0.60
2022-09-16T12:13:11.023Z,0.45
2022-09-16T12:18:30.251Z,0.50
2022-09-16T12:23:39.003Z,0.40
2022-09-16T12:28:48.341Z,0.40
2022-09-16T12:34:01.076Z,0.73
2022-09-16T12:39:03.248Z,0.35
2022-09-16T12:44:33.566Z,0.68
2022-09-16T12:50:01.945Z,0.73
2022-09-16T12:55:30.959Z,0.38
2022-09-16T13:00:53.157Z,0.65
2022-09-16T13:05:58.265Z,0.47
2022-09-16T13:12:07.122Z,0.35
2022-09-16T13:16:34.991Z,0.40
2022-09-16T13:21:45.015Z,0.35
2022-09-16T13:26:47.180Z,0.50
2022-09-16T13:31:49.281Z,0.50
2022-09-16T13:36:51.493Z,0.52
2022-09-16T13:41:53.936Z,0.50
2022-09-16T13:47:09.901Z,0.43
2022-09-16T13:52:16.118Z,1.27
2022-09-16T13:57:27.303Z,0.40
2022-09-16T14:08:52.667Z,0.60
2022-09-16T14:14:07.631Z,0.60
2022-09-16T14:19:24.773Z,0.70
2022-09-16T14:24:34.973Z,0.50
2022-09-16T14:29:36.935Z,0.40
2022-09-16T14:34:38.939Z,0.20
2022-09-16T14:39:42.867Z,0.40
2022-09-16T14:44:52.696Z,0.60
2022-09-16T14:50:01.306Z,0.60
2022-09-16T14:55:08.028Z,0.60
2022-09-16T15:00:15.819Z,0.60
2022-09-16T15:05:25.447Z,0.70
2022-09-16T15:10:39.753Z,0.47
2022-09-16T15:15:58.184Z,0.60
2022-09-16T15:21:18.296Z,0.52
2022-09-16T15:26:23.626Z,0.80
2022-09-16T15:31:37.116Z,0.50
2022-09-16T15:36:41.819Z,0.77
2022-09-16T15:41:43.866Z,0.80
2022-09-16T15:46:47.119Z,0.50
2022-09-16T15:51:51.368Z,0.70
2022-09-16T15:57:05.664Z,0.50
2022-09-16T16:02:33.246Z,0.73
2022-09-16T16:07:46.798Z,0.50
2022-09-16T16:12:50.138Z,0.55
2022-09-16T16:17:54.355Z,0.47
2022-09-16T16:22:56.674Z,0.60
2022-09-16T16:27:58.927Z,0.50
2022-09-16T16:33:00.930Z,0.77
2022-09-16T16:38:02.877Z,0.88
2022-09-16T16:43:04.841Z,0.80
2022-09-16T16:48:06.797Z,0.80
2022-09-16T16:53:08.777Z,0.70
2022-09-16T16:58:10.770Z,0.73
2022-09-16T17:03:12.785Z,1.02
2022-09-16T17:08:14.755Z,1.00
2022-09-16T17:13:17.097Z,0.90
2022-09-16T17:18:19.145Z,1.02
2022-09-16T17:23:21.117Z,0.60
2022-09-16T17:28:23.179Z,0.75
2022-09-16T17:33:25.248Z,1.33
2022-09-16T17:38:27.403Z,0.77
2022-09-16T17:43:32.315Z,0.90
2022-09-16T17:48:37.407Z,1.33
2022-09-16T17:53:39.989Z,1.40
2022-09-16T17:58:45.277Z,1.30
2022-09-16T18:03:49.323Z,0.82
2022-09-16T18:08:52.286Z,0.77
2022-09-16T18:13:59.113Z,1.00
2022-09-16T18:19:02.259Z,1.08
2022-09-16T18:24:05.639Z,0.95
2022-09-16T18:29:19.708Z,1.27
2022-09-16T18:34:22.268Z,1.10
2022-09-16T18:39:24.323Z,0.80
2022-09-16T18:44:26.460Z,1.20
2022-09-16T18:49:30.055Z,1.15
2022-09-16T18:54:33.093Z,1.42
2022-09-16T18:59:36.584Z,1.38
2022-09-16T19:04:40.807Z,1.50
2022-09-16T19:09:44.729Z,1.30
2022-09-16T19:14:46.681Z,1.52
2022-09-16T19:19:50.726Z,1.13
2022-09-16T19:24:54.218Z,1.65
2022-09-16T19:29:56.212Z,1.80
2022-09-16T19:34:58.184Z,1.52
2022-09-16T19:40:00.361Z,1.67
2022-09-16T19:45:02.526Z,1.80
2022-09-16T19:50:06.024Z,2.05
2022-09-16T19:55:09.098Z,1.77
2022-09-16T20:00:14.915Z,1.45
2022-09-16T20:05:17.744Z,1.40
2022-09-16T20:10:21.052Z,1.23
2022-09-16T20:15:23.015Z,1.27
2022-09-16T20:20:25.057Z,1.17
2022-09-16T20:25:27.051Z,1.30
2022-09-16T20:30:30.306Z,1.90
2022-09-16T20:35:33.456Z,1.80
2022-09-16T20:40:35.556Z,1.63
2022-09-16T20:45:38.245Z,1.50
2022-09-16T20:50:40.248Z,1.00
2022-09-16T20:55:43.538Z,1.30
2022-09-16T21:00:45.627Z,1.10
2022-09-16T21:05:47.713Z,1.40
2022-09-16T21:10:49.671Z,1.30
2022-09-16T21:15:56.725Z,1.20
2022-09-16T21:21:22.331Z,1.88
2022-09-16T21:26:35.082Z,1.48
2022-09-16T21:31:38.688Z,1.23
2022-09-16T21:36:41.008Z,2.42
2022-09-16T21:41:44.493Z,1.30
2022-09-16T21:46:47.035Z,1.05
2022-09-16T21:51:49.158Z,0.90
2022-09-16T21:56:51.898Z,1.05
2022-09-16T22:01:54.060Z,1.05
2022-09-16T22:06:56.364Z,1.00
2022-09-16T22:11:59.035Z,1.23
2022-09-16T22:17:01.036Z,1.08
2022-09-16T22:22:03.047Z,1.75
2022-09-16T22:27:05.129Z,1.25
2022-09-16T22:32:07.185Z,1.38
2022-09-16T22:37:09.224Z,1.20
2022-09-16T22:42:11.368Z,1.02
2022-09-16T22:47:13.320Z,1.10
2022-09-16T22:52:15.281Z,1.05
2022-09-16T22:57:17.753Z,1.35
2022-09-16T23:02:19.724Z,0.98
2022-09-16T23:07:21.683Z,0.93
2022-09-16T23:12:23.687Z,1.23
2022-09-16T23:17:25.649Z,1.50
2022-09-16T23:22:27.621Z,1.17
2022-09-16T23:27:29.592Z,1.00
2022-09-16T23:32:31.540Z,1.30
2022-09-16T23:37:33.534Z,1.00
2022-09-16T23:42:36.209Z,0.90
2022-09-16T23:47:38.354Z,1.15
2022-09-16T23:52:40.425Z,1.10
2022-09-16T23:57:42.656Z,1.65
